Archival Weather

Centro Met. Antartico Pdte. E

Centro Met. Antartico Pdte. E, Antarctica (SCRM)

Report from: Thursday, September 21, 2023 5:00 PM UTC
Current time: Friday, February 23, 2024 7:26 PM UTC

Current weather – Weather history – Daily summaries
Weather forecast

Present weatherLight snow showers
Temperature-7.0°C (19.4°F)
Wind chill-17.5°C (0.5°F)
Dew point-11.0°C (12.2°F)
Winds 26 kts (13.4 m/s, 29.9 mph) West-Southwest (240°)
Visibility6.2 mi. (10 km)
Clouds Ceiling: Broken clouds 2,500 ft. (762 m)
Altimeter29.18 in.Hg (988 mB)
Relative humidity73 %
Density altitude-1,811 ft. (-552 m)
Remarks No significant changes expected in the next two hours
Flight conditions Marginal Visual Meteorological Conditions
Raw dataSCRM 211700Z 24026KT 9999 -SHSN BKN025 M07/M11 Q0988 NOSIG
An error has occurred. This application may no longer respond until reloaded. Reload 🗙